Time;durP1;ratioP1;P1;durP2;ratioP2;P2;SDS_P1;SDS_P2;PMS_P1;PMS_P2;Temp;Humidity;BMP_temperature;BMP_pressure;BME280_temperature;BME280_humidity;BME280_pressure;Samples;Min_cycle;Max_cycle;Signal;HPM_P1;HPM_P2
2023/05/28 00:00:44;;;;;;;5.78;2.55;;;;;;;19.77;44.96;93621.81;4886770;29;20037;-92
2023/05/28 00:03:10;;;;;;;5.47;2.90;;;;;;;19.77;45.20;93632.78;4848628;29;20029;-91
2023/05/28 00:05:36;;;;;;;3.83;2.50;;;;;;;19.77;45.29;93633.53;4897627;29;20473;-91
2023/05/28 00:08:01;;;;;;;4.20;2.72;;;;;;;19.77;44.99;93621.81;4884875;29;20047;-91
2023/05/28 00:10:32;;;;;;;4.20;2.85;;;;;;;19.78;45.02;93626.03;4855082;29;20045;-91
2023/05/28 00:12:58;;;;;;;4.28;2.70;;;;;;;19.76;45.04;93623.06;4870800;29;20423;-93
2023/05/28 00:15:27;;;;;;;4.32;2.78;;;;;;;19.76;44.66;93625.81;4914010;29;20049;-92
2023/05/28 00:17:56;;;;;;;4.38;2.95;;;;;;;19.76;44.95;93617.59;4895766;29;20045;-91
2023/05/28 00:20:22;;;;;;;3.55;2.45;;;;;;;19.77;45.41;93616.31;4908577;29;20137;-91
2023/05/28 00:22:49;;;;;;;3.53;2.38;;;;;;;19.76;44.90;93609.34;4901613;29;20033;-92
2023/05/28 00:25:14;;;;;;;4.65;2.70;;;;;;;19.73;44.95;93611.13;4931235;29;20048;-91
2023/05/28 00:27:43;;;;;;;4.40;2.65;;;;;;;19.77;45.02;93602.63;4914967;29;20080;-91
2023/05/28 00:30:09;;;;;;;3.85;2.78;;;;;;;19.76;45.20;93601.88;4906153;28;20079;-91
2023/05/28 00:32:38;;;;;;;3.40;2.30;;;;;;;19.72;45.26;93601.41;4938561;29;20505;-91
2023/05/28 00:35:06;;;;;;;4.07;2.78;;;;;;;19.74;45.28;93600.91;4942554;29;20044;-91
2023/05/28 00:37:31;;;;;;;6.18;3.03;;;;;;;19.75;45.14;93586.66;4931938;29;20517;-91
2023/05/28 00:39:58;;;;;;;3.80;2.58;;;;;;;19.71;45.09;93586.22;4938466;28;20062;-91
2023/05/28 00:42:26;;;;;;;4.00;2.38;;;;;;;19.73;45.40;93580.94;4939413;28;20513;-91
2023/05/28 00:44:52;;;;;;;4.80;2.75;;;;;;;19.70;44.88;93592.94;4954380;28;20043;-91
2023/05/28 00:47:28;;;;;;;4.30;2.70;;;;;;;19.69;44.99;93583.25;4912459;29;20039;-90
2023/05/28 00:49:55;;;;;;;3.92;3.10;;;;;;;19.70;45.33;93581.97;4949177;28;20561;-90
2023/05/28 00:52:24;;;;;;;4.03;2.47;;;;;;;19.70;44.91;93581.97;4960968;28;20059;-91
2023/05/28 00:54:51;;;;;;;6.70;2.50;;;;;;;19.72;44.86;93578.72;4976611;28;20039;-91
2023/05/28 00:57:21;;;;;;;3.55;2.40;;;;;;;19.73;44.92;93577.47;4967441;28;20047;-91
2023/05/28 00:59:48;;;;;;;4.60;2.28;;;;;;;19.72;44.93;93567.75;4950696;28;20047;-92
2023/05/28 01:02:15;;;;;;;4.97;2.92;;;;;;;19.71;44.66;93567.00;4964684;28;20149;-92
2023/05/28 01:04:42;;;;;;;3.08;2.22;;;;;;;19.69;44.85;93569.56;4930566;28;20047;-91
2023/05/28 01:07:08;;;;;;;4.82;3.00;;;;;;;19.72;44.58;93565.75;4920783;28;20049;-92
2023/05/28 01:09:36;;;;;;;3.08;2.08;;;;;;;19.71;44.47;93572.50;4957920;28;20053;-92
2023/05/28 01:12:04;;;;;;;3.95;2.90;;;;;;;19.70;44.69;93575.78;4896859;29;20860;-92
2023/05/28 01:14:31;;;;;;;3.45;2.00;;;;;;;19.70;44.48;93571.00;4876799;29;20056;-91
2023/05/28 01:16:58;;;;;;;5.70;2.50;;;;;;;19.71;44.62;93571.75;4890097;29;20556;-91
2023/05/28 01:19:31;;;;;;;3.72;2.72;;;;;;;19.68;44.61;93568.06;4877027;29;20048;-91
2023/05/28 01:22:06;;;;;;;4.47;2.80;;;;;;;19.70;44.41;93565.53;4885464;29;20090;-92
2023/05/28 01:24:41;;;;;;;4.50;2.80;;;;;;;19.70;44.65;93565.53;4868999;29;20045;-91
2023/05/28 01:27:09;;;;;;;5.63;2.45;;;;;;;19.68;44.53;93551.59;4896051;29;20044;-91
2023/05/28 01:29:37;;;;;;;3.90;2.50;;;;;;;19.69;44.10;93555.09;4893171;29;20068;-91
2023/05/28 01:32:07;;;;;;;4.75;2.80;;;;;;;19.69;44.49;93555.09;4884861;29;20671;-90
2023/05/28 01:34:32;;;;;;;4.35;2.85;;;;;;;19.69;44.53;93552.34;4888712;29;20052;-91
2023/05/28 01:37:03;;;;;;;3.85;2.90;;;;;;;19.70;44.40;93562.06;4897211;29;20056;-93
2023/05/28 01:39:38;;;;;;;3.70;2.60;;;;;;;19.71;44.35;93553.28;4904697;29;20044;-91
2023/05/28 01:42:05;;;;;;;4.38;3.08;;;;;;;19.68;44.37;93557.09;4896457;28;20131;-92
2023/05/28 01:44:32;;;;;;;5.93;2.85;;;;;;;19.67;44.22;93558.34;4960909;28;20047;-91
2023/05/28 01:46:58;;;;;;;4.88;2.78;;;;;;;19.69;44.22;93553.09;4957744;28;20113;-92
2023/05/28 01:49:25;;;;;;;3.83;2.63;;;;;;;19.67;44.26;93552.88;4963861;28;20043;-92
2023/05/28 01:51:51;;;;;;;5.57;2.85;;;;;;;19.69;44.27;93546.88;4980493;28;20053;-91
2023/05/28 01:54:17;;;;;;;3.70;2.85;;;;;;;19.68;44.34;93548.13;4988855;28;20042;-90
2023/05/28 01:56:42;;;;;;;3.88;3.17;;;;;;;19.64;44.49;93548.41;4995754;28;20063;-91
2023/05/28 01:59:12;;;;;;;3.67;2.92;;;;;;;19.64;44.05;93547.66;4978643;28;20046;-91
2023/05/28 02:01:39;;;;;;;4.85;2.58;;;;;;;19.66;44.23;93540.41;4970293;28;20034;-91
2023/05/28 02:04:04;;;;;;;4.65;2.55;;;;;;;19.64;44.07;93544.91;4996980;28;20133;-92
2023/05/28 02:06:32;;;;;;;3.67;2.63;;;;;;;19.67;43.97;93535.66;4990738;28;20046;-92
2023/05/28 02:08:57;;;;;;;4.82;2.38;;;;;;;19.64;44.12;93544.91;4976413;28;20089;-91
2023/05/28 02:11:24;;;;;;;3.42;2.45;;;;;;;19.64;44.15;93547.66;4953857;28;20040;-90
2023/05/28 02:13:52;;;;;;;3.70;2.20;;;;;;;19.66;44.02;93534.91;4969443;28;20062;-92
2023/05/28 02:16:20;;;;;;;3.53;2.80;;;;;;;19.68;44.06;93537.16;4957364;28;20089;-91
2023/05/28 02:18:46;;;;;;;6.13;2.22;;;;;;;19.64;44.01;93540.19;5002539;28;20030;-92
2023/05/28 02:21:13;;;;;;;3.92;2.40;;;;;;;19.66;44.16;93540.41;4965662;28;20050;-91
2023/05/28 02:23:43;;;;;;;5.03;2.88;;;;;;;19.65;44.00;93541.66;4974568;28;20043;-90
2023/05/28 02:26:08;;;;;;;4.60;2.47;;;;;;;19.66;43.96;93525.94;4983940;28;20038;-92
2023/05/28 02:28:35;;;;;;;4.68;3.00;;;;;;;19.65;43.93;93532.69;4968572;28;20070;-90
2023/05/28 02:31:09;;;;;;;5.10;2.75;;;;;;;19.64;44.19;93533.94;4989774;28;20052;-92
2023/05/28 02:33:47;;;;;;;4.80;2.50;;;;;;;19.65;44.06;93536.19;4966119;28;20046;-91
2023/05/28 02:36:20;;;;;;;4.88;2.75;;;;;;;19.63;44.05;93538.69;4954721;28;20042;-91
2023/05/28 02:38:46;;;;;;;4.32;2.90;;;;;;;19.65;43.98;93532.69;4983815;28;20053;-90
2023/05/28 02:41:16;;;;;;;4.10;2.65;;;;;;;19.60;44.10;93528.00;4950897;28;20049;-92
2023/05/28 02:43:44;;;;;;;4.32;2.42;;;;;;;19.60;44.03;93531.50;4998049;28;20056;-91
2023/05/28 02:46:10;;;;;;;6.35;2.90;;;;;;;19.61;43.94;93530.22;4972350;28;20042;-90
2023/05/28 02:48:37;;;;;;;3.85;2.53;;;;;;;19.59;43.93;93532.75;5002209;28;20038;-91
2023/05/28 02:51:04;;;;;;;4.80;2.65;;;;;;;19.59;43.91;93523.78;4977016;28;20042;-91
2023/05/28 02:53:32;;;;;;;4.90;2.65;;;;;;;19.59;43.95;93521.78;4990534;28;20046;-93
2023/05/28 02:55:57;;;;;;;4.57;2.85;;;;;;;19.61;44.15;93522.00;5036223;28;20052;-92
2023/05/28 02:58:28;;;;;;;4.40;2.83;;;;;;;19.60;44.00;93525.25;4990133;28;20496;-91
2023/05/28 03:00:57;;;;;;;3.08;2.22;;;;;;;19.63;43.79;93524.22;4995970;28;20575;-91
2023/05/28 03:03:23;;;;;;;3.43;2.20;;;;;;;19.61;44.06;93519.25;4993786;28;20046;-92
2023/05/28 03:05:52;;;;;;;4.32;3.08;;;;;;;19.62;43.69;93523.50;4995973;28;20049;-91
2023/05/28 03:08:17;;;;;;;4.10;2.80;;;;;;;19.61;43.75;93522.00;4999505;28;20108;-91
2023/05/28 03:10:45;;;;;;;3.38;2.35;;;;;;;19.59;44.07;93529.25;4940066;28;20038;-92
2023/05/28 03:13:10;;;;;;;4.35;2.90;;;;;;;19.61;43.93;93529.50;4956888;28;20174;-91
2023/05/28 03:15:37;;;;;;;3.67;2.28;;;;;;;19.60;44.26;93525.25;4960865;28;20043;-90
2023/05/28 03:18:04;;;;;;;3.35;2.50;;;;;;;19.57;43.79;93521.56;4936075;28;20046;-91
2023/05/28 03:20:30;;;;;;;4.07;2.10;;;;;;;19.56;43.96;93522.81;4951960;28;20042;-91
2023/05/28 03:22:58;;;;;;;3.45;2.42;;;;;;;19.57;43.90;93527.03;4909347;29;20075;-92
2023/05/28 03:25:25;;;;;;;5.35;2.90;;;;;;;19.59;43.87;93529.25;4914880;29;20040;-91
2023/05/28 03:27:52;;;;;;;4.07;2.60;;;;;;;19.59;43.89;93523.78;4908583;29;20043;-91
2023/05/28 03:30:18;;;;;;;4.03;2.60;;;;;;;19.59;43.78;93526.53;4936129;29;20044;-91
2023/05/28 03:32:44;;;;;;;4.03;2.83;;;;;;;19.60;43.97;93528.00;4924729;29;20172;-92
2023/05/28 03:35:10;;;;;;;3.22;2.22;;;;;;;19.56;43.76;93511.84;4907094;28;20130;-92
2023/05/28 03:37:35;;;;;;;3.15;2.25;;;;;;;19.59;43.94;93524.53;4939132;28;20107;-91
2023/05/28 03:40:04;;;;;;;3.92;2.15;;;;;;;19.60;43.74;93519.78;4922276;29;20044;-90
2023/05/28 03:42:32;;;;;;;4.55;2.40;;;;;;;19.56;43.82;93516.56;4926393;29;20246;-91
2023/05/28 03:45:06;;;;;;;4.95;2.90;;;;;;;19.58;43.78;93519.56;4920515;29;20142;-92
2023/05/28 03:47:35;;;;;;;3.85;2.33;;;;;;;19.60;43.72;93520.53;4919054;29;20055;-93
2023/05/28 03:50:04;;;;;;;4.10;2.72;;;;;;;19.60;43.78;93520.53;4937136;29;20040;-91
2023/05/28 03:52:32;;;;;;;5.05;2.65;;;;;;;19.58;43.85;93520.28;4958041;28;20035;-93
2023/05/28 03:55:00;;;;;;;3.95;2.55;;;;;;;19.57;43.70;93520.81;4960554;28;20046;-91
2023/05/28 03:57:27;;;;;;;4.47;2.50;;;;;;;19.59;43.87;93524.53;5005766;28;20059;-92
2023/05/28 03:59:56;;;;;;;3.17;2.28;;;;;;;19.59;43.55;93524.53;5022690;28;20041;-91
2023/05/28 04:02:23;;;;;;;3.83;2.95;;;;;;;19.59;43.65;93526.53;4991892;28;20057;-92
2023/05/28 04:04:58;;;;;;;4.97;2.75;;;;;;;19.60;43.78;93525.25;4999301;28;20034;-91
2023/05/28 04:07:24;;;;;;;3.78;2.67;;;;;;;19.64;43.96;93525.72;5000167;28;20038;-91
2023/05/28 04:09:51;;;;;;;3.97;2.88;;;;;;;19.64;43.81;93520.25;4961710;28;20113;-92
2023/05/28 04:12:17;;;;;;;4.10;1.92;;;;;;;19.57;43.97;93518.06;4990252;28;20046;-92
2023/05/28 04:14:50;;;;;;;3.53;2.20;;;;;;;19.62;43.67;93525.50;4978339;28;20049;-91
2023/05/28 04:17:18;;;;;;;3.45;2.00;;;;;;;19.61;43.79;93524.75;4983288;28;20034;-91
2023/05/28 04:19:53;;;;;;;3.80;2.20;;;;;;;19.61;43.83;93524.75;4981419;28;20034;-92
2023/05/28 04:22:23;;;;;;;2.90;2.10;;;;;;;19.59;43.71;93521.03;4980465;28;20030;-93
2023/05/28 04:24:54;;;;;;;4.45;2.63;;;;;;;19.59;43.78;93518.28;4971554;28;20051;-90
2023/05/28 04:27:19;;;;;;;2.85;2.28;;;;;;;19.60;43.99;93526.00;4975313;28;20042;-90
2023/05/28 04:29:47;;;;;;;3.22;2.20;;;;;;;19.63;43.94;93526.97;4941322;28;20476;-91
2023/05/28 04:32:16;;;;;;;3.70;2.45;;;;;;;19.61;43.76;93524.75;4980631;28;20668;-91
2023/05/28 04:34:45;;;;;;;4.68;2.63;;;;;;;19.62;43.73;93525.50;4989944;28;20628;-90
2023/05/28 04:37:10;;;;;;;3.42;2.53;;;;;;;19.62;43.47;93525.50;4943087;28;20485;-91
2023/05/28 04:39:37;;;;;;;3.70;2.10;;;;;;;19.64;43.31;93515.50;4980561;28;20066;-91
2023/05/28 04:42:07;;;;;;;3.80;2.33;;;;;;;19.66;43.71;93529.44;4975328;28;20057;-91
2023/05/28 04:44:40;;;;;;;3.88;2.58;;;;;;;19.66;43.53;93536.91;4946217;28;20054;-91
2023/05/28 04:47:11;;;;;;;3.17;2.33;;;;;;;19.66;43.88;93526.69;4978556;28;20045;-92
2023/05/28 04:49:40;;;;;;;3.20;2.13;;;;;;;19.67;43.71;93530.19;4931943;28;20032;-92
2023/05/28 04:52:10;;;;;;;2.65;1.95;;;;;;;19.67;43.98;93528.19;4909906;28;20068;-92
2023/05/28 04:54:37;;;;;;;3.10;2.25;;;;;;;19.68;43.65;93535.16;4947872;29;20039;-91
2023/05/28 04:57:07;;;;;;;3.63;2.13;;;;;;;19.68;43.82;93520.69;4901983;29;20036;-91
2023/05/28 04:59:41;;;;;;;4.75;2.25;;;;;;;19.70;44.08;93531.91;4855762;29;20044;-91
2023/05/28 05:02:07;;;;;;;2.97;1.70;;;;;;;19.70;44.17;93529.88;4882904;29;20044;-93
2023/05/28 05:04:33;;;;;;;3.38;2.15;;;;;;;19.71;44.22;93519.63;4865065;29;20139;-91
2023/05/28 05:07:05;;;;;;;3.08;1.85;;;;;;;19.71;44.19;93531.34;4892537;29;20072;-92
2023/05/28 05:09:42;;;;;;;3.00;2.05;;;;;;;19.74;44.22;93524.09;4893514;29;20036;-91
2023/05/28 05:14:36;;;;;;;2.20;1.45;;;;;;;19.75;44.11;93522.84;5044234;28;20049;-92
2023/05/28 05:17:06;;;;;;;3.22;2.15;;;;;;;19.78;44.04;93530.03;4979603;28;20034;-92
2023/05/28 05:19:32;;;;;;;1.77;1.40;;;;;;;19.78;44.09;93522.56;4986678;28;20034;-92
2023/05/28 05:22:00;;;;;;;3.05;1.83;;;;;;;19.78;44.07;93524.56;4998658;28;20042;-91
2023/05/28 05:24:26;;;;;;;2.55;1.73;;;;;;;19.79;44.06;93529.53;4977949;28;20067;-91
2023/05/28 05:26:51;;;;;;;3.20;2.20;;;;;;;19.79;44.36;93529.53;4991761;28;20038;-91
2023/05/28 05:29:20;;;;;;;2.38;1.60;;;;;;;19.82;44.03;93525.00;4945443;28;20058;-92
2023/05/28 05:31:54;;;;;;;3.00;1.63;;;;;;;19.82;44.30;93533.22;4987444;28;20130;-91
2023/05/28 05:34:25;;;;;;;2.28;1.73;;;;;;;19.82;44.08;93528.50;4978474;28;20097;-91
2023/05/28 05:36:51;;;;;;;3.53;1.70;;;;;;;19.85;43.92;93532.22;4973887;28;20588;-91
2023/05/28 05:39:23;;;;;;;2.28;1.83;;;;;;;19.85;43.99;93530.19;4962705;28;20129;-91
2023/05/28 05:41:59;;;;;;;4.07;1.73;;;;;;;19.87;44.05;93537.19;4908906;29;20054;-91
2023/05/28 05:44:26;;;;;;;2.45;1.52;;;;;;;19.88;44.01;93531.19;4956037;28;20470;-91
2023/05/28 05:46:55;;;;;;;2.10;1.60;;;;;;;19.88;44.12;93531.19;4913877;28;20020;-91
2023/05/28 05:49:45;;;;;;;2.25;1.45;;;;;;;19.90;43.92;93534.16;4944980;28;20039;-91
2023/05/28 05:52:13;;;;;;;2.35;1.42;;;;;;;19.91;44.08;93524.66;4917885;29;20114;-92
2023/05/28 05:54:49;;;;;;;3.70;2.25;;;;;;;19.92;43.98;93536.38;4907931;29;20043;-92
2023/05/28 05:57:22;;;;;;;2.42;1.80;;;;;;;19.92;43.89;93539.13;4931510;28;20035;-91
2023/05/28 05:59:50;;;;;;;2.38;1.50;;;;;;;19.94;44.01;93531.81;5004086;22;20096;-91
2023/05/28 06:02:26;;;;;;;3.25;1.92;;;;;;;19.96;44.08;93529.31;5062770;28;20066;-91
2023/05/28 06:04:56;;;;;;;2.85;1.80;;;;;;;19.95;43.94;93536.06;5036434;28;20040;-90
2023/05/28 06:07:39;;;;;;;3.08;1.75;;;;;;;19.98;43.96;93531.53;5096540;28;20032;-91
2023/05/28 06:10:07;;;;;;;2.88;1.52;;;;;;;20.00;44.00;93534.50;5024990;28;20057;-92
2023/05/28 06:12:36;;;;;;;2.53;1.77;;;;;;;19.98;43.88;93529.53;4978077;28;20033;-92
2023/05/28 06:15:17;;;;;;;2.95;1.60;;;;;;;20.00;44.01;93524.28;5011951;28;20045;-91
2023/05/28 06:18:13;;;;;;;2.80;1.70;;;;;;;20.01;43.90;93522.28;5014556;28;20042;-91
2023/05/28 06:20:39;;;;;;;3.22;2.00;;;;;;;20.04;43.76;93526.72;5009056;28;20121;-91
2023/05/28 06:23:22;;;;;;;2.45;1.52;;;;;;;20.03;43.78;93528.72;5010281;28;20045;-90
2023/05/28 06:25:54;;;;;;;2.40;1.65;;;;;;;20.05;43.96;93528.22;4963242;28;20064;-92
2023/05/28 06:28:20;;;;;;;2.17;1.52;;;;;;;20.06;43.81;93530.44;4964949;28;20018;-92
2023/05/28 06:31:16;;;;;;;2.33;1.58;;;;;;;20.06;43.89;93535.94;4948883;28;20593;-90
2023/05/28 06:33:49;;;;;;;2.30;1.70;;;;;;;20.07;43.59;93536.69;4975337;28;20051;-91
2023/05/28 06:36:21;;;;;;;2.50;1.63;;;;;;;20.08;43.85;93540.91;4959893;28;20055;-92
2023/05/28 06:39:41;;;;;;;2.15;1.50;;;;;;;20.09;43.79;93537.63;4949770;28;20042;-92
2023/05/28 06:42:10;;;;;;;3.88;2.17;;;;;;;20.10;43.83;93535.63;5000341;28;20057;-91
2023/05/28 06:44:44;;;;;;;3.13;1.77;;;;;;;20.10;43.79;93530.16;4945510;28;20049;-92
2023/05/28 06:47:30;;;;;;;2.78;2.17;;;;;;;20.10;43.57;93533.63;4990741;28;20038;-91
2023/05/28 06:50:01;;;;;;;3.22;2.05;;;;;;;20.10;43.68;93536.38;4974564;28;20027;-92
2023/05/28 06:52:34;;;;;;;3.22;1.58;;;;;;;20.12;43.74;93541.34;5002103;23;20125;-91
2023/05/28 06:55:06;;;;;;;2.53;1.80;;;;;;;20.13;43.79;93537.34;4996847;28;20027;-92
2023/05/28 06:57:33;;;;;;;3.47;2.00;;;;;;;20.13;43.69;93538.09;5111635;22;20069;-92
2023/05/28 07:00:14;;;;;;;2.30;1.50;;;;;;;20.14;43.75;93536.06;5024299;28;20414;-92
2023/05/28 07:02:45;;;;;;;2.65;1.63;;;;;;;20.15;43.55;93538.28;5006998;28;20038;-91
2023/05/28 07:05:31;;;;;;;2.05;1.40;;;;;;;20.14;43.66;93539.53;4995953;28;20110;-90
2023/05/28 07:07:57;;;;;;;1.63;1.42;;;;;;;20.16;43.84;93534.28;4981712;28;20042;-91
2023/05/28 07:10:27;;;;;;;2.60;2.00;;;;;;;20.17;43.69;93535.03;4950664;28;20043;-92
2023/05/28 07:13:02;;;;;;;3.28;1.98;;;;;;;20.15;43.80;93529.31;4925799;28;20408;-92
2023/05/28 07:15:28;;;;;;;2.95;1.70;;;;;;;20.17;43.79;93524.06;4945996;28;20055;-90
2023/05/28 07:17:55;;;;;;;3.05;1.60;;;;;;;20.18;43.71;93528.28;4964105;28;20035;-91
2023/05/28 07:20:21;;;;;;;3.33;2.15;;;;;;;20.18;43.82;93537.25;4956617;28;20101;-92
2023/05/28 07:22:48;;;;;;;2.75;1.58;;;;;;;20.18;43.50;93528.28;4924801;29;20040;-91
2023/05/28 07:25:16;;;;;;;2.20;1.65;;;;;;;20.19;43.72;93530.50;4905579;29;20060;-90
2023/05/28 07:27:41;;;;;;;2.95;1.70;;;;;;;20.19;43.74;93536.00;4875381;29;20048;-92
2023/05/28 07:30:10;;;;;;;2.97;1.52;;;;;;;20.19;43.65;93525.03;4918020;29;20485;-91
2023/05/28 07:32:38;;;;;;;;;;;;;;;20.23;43.74;93534.97;4888805;29;20047;-90
2023/05/28 07:35:04;;;;;;;2.50;1.77;;;;;;;20.20;43.72;93525.75;4940383;28;19906;-91
2023/05/28 07:37:33;;;;;;;2.13;1.45;;;;;;;20.19;43.75;93538.75;4932235;29;20063;-91
2023/05/28 07:40:00;;;;;;;2.88;1.73;;;;;;;20.20;43.64;93540.22;4928495;29;20132;-90
2023/05/28 07:42:27;;;;;;;3.97;1.67;;;;;;;20.20;43.78;93532.00;4862432;29;20098;-89
2023/05/28 07:44:54;;;;;;;3.85;1.90;;;;;;;20.20;43.75;93534.72;4836219;29;20041;-91
2023/05/28 07:47:22;;;;;;;2.65;1.83;;;;;;;20.19;43.74;93538.75;4896720;29;20045;-90
2023/05/28 07:49:50;;;;;;;1.90;1.40;;;;;;;20.20;43.75;93537.47;4896093;29;20412;-91
2023/05/28 07:52:51;;;;;;;2.80;1.73;;;;;;;20.20;43.73;93540.22;4841338;29;20141;-91
2023/05/28 07:55:29;;;;;;;2.22;1.70;;;;;;;20.22;43.88;93542.44;4852827;29;20046;-90
2023/05/28 07:57:58;;;;;;;2.63;1.70;;;;;;;20.23;43.79;93532.22;4857115;29;20050;-91
2023/05/28 08:00:42;;;;;;;2.67;1.92;;;;;;;20.22;43.77;93536.22;4820076;29;20130;-90
2023/05/28 08:03:07;;;;;;;2.50;1.67;;;;;;;20.22;43.77;93533.47;4824383;29;20053;-91
2023/05/28 08:05:35;;;;;;;2.78;1.80;;;;;;;20.20;43.77;93523.75;4852786;29;20048;-89
2023/05/28 08:08:05;;;;;;;3.17;1.77;;;;;;;20.20;43.70;93532.00;4852564;29;20514;-90
2023/05/28 08:10:41;;;;;;;2.25;1.48;;;;;;;20.20;43.72;93523.00;4850078;29;20458;-90
2023/05/28 08:13:07;;;;;;;2.10;1.40;;;;;;;20.22;43.66;93530.72;4879948;29;20103;-91
2023/05/28 08:15:33;;;;;;;2.55;1.70;;;;;;;20.22;43.74;93531.47;4922967;28;20099;-90
2023/05/28 08:18:12;;;;;;;3.67;1.60;;;;;;;20.22;43.71;93528.72;4943063;28;20051;-91
2023/05/28 08:20:51;;;;;;;2.85;1.63;;;;;;;20.22;43.82;93523.25;4912359;28;20118;-91
2023/05/28 08:23:27;;;;;;;2.63;1.63;;;;;;;20.24;43.89;93523.47;4947799;29;20099;-90
2023/05/28 08:26:12;;;;;;;2.47;1.73;;;;;;;20.22;43.74;93517.75;4957326;29;20044;-91
2023/05/28 08:28:47;;;;;;;3.40;2.10;;;;;;;20.23;43.79;93529.47;4967958;28;20106;-91
2023/05/28 08:31:23;;;;;;;3.65;1.60;;;;;;;20.22;43.71;93525.25;4940923;28;20034;-91
2023/05/28 08:33:51;;;;;;;1.83;1.48;;;;;;;20.21;43.59;93516.25;4983340;28;20069;-91
2023/05/28 08:36:29;;;;;;;4.70;2.17;;;;;;;20.29;43.45;93525.41;4973414;28;20125;-91
2023/05/28 08:38:55;;;;;;;2.70;1.75;;;;;;;20.22;43.75;93523.25;4999995;23;20045;-91
2023/05/28 08:41:22;;;;;;;4.80;1.88;;;;;;;20.22;43.74;93522.50;5009810;28;20100;-91
2023/05/28 08:43:48;;;;;;;2.42;1.80;;;;;;;20.21;43.57;93516.25;5011553;28;20099;-91
2023/05/28 08:46:14;;;;;;;2.60;1.80;;;;;;;20.21;43.65;93508.03;5006849;28;20041;-91
2023/05/28 08:48:48;;;;;;;2.97;1.80;;;;;;;20.22;43.63;93508.78;4960267;28;20076;-91
2023/05/28 08:51:28;;;;;;;4.30;1.83;;;;;;;20.22;43.62;93508.78;4982605;28;20080;-92
2023/05/28 08:53:56;;;;;;;3.70;1.77;;;;;;;20.20;43.83;93499.06;4987350;28;20053;-92
2023/05/28 08:56:25;;;;;;;2.53;1.65;;;;;;;20.22;43.77;93501.28;4953152;28;20042;-91
2023/05/28 08:59:05;;;;;;;2.67;1.60;;;;;;;20.20;43.83;93504.53;4964190;28;20046;-93
2023/05/28 09:01:32;;;;;;;2.95;1.80;;;;;;;20.21;43.93;93497.06;4946433;28;20577;-93
2023/05/28 09:04:23;;;;;;;2.90;1.85;;;;;;;20.22;43.84;93497.78;4979881;28;20081;-92
2023/05/28 09:06:51;;;;;;;4.13;1.85;;;;;;;20.22;43.68;93500.53;4959282;28;20080;-91
2023/05/28 09:09:18;;;;;;;2.60;1.80;;;;;;;20.20;43.87;93490.06;4991035;28;20149;-92
2023/05/28 09:11:46;;;;;;;2.22;1.52;;;;;;;20.22;43.93;93490.31;4991827;28;20098;-91
2023/05/28 09:14:18;;;;;;;2.45;2.10;;;;;;;20.20;43.97;93490.81;4930528;28;20073;-90
2023/05/28 09:16:48;;;;;;;2.65;1.60;;;;;;;20.20;43.78;93490.81;4986715;28;20060;-92
2023/05/28 09:19:24;;;;;;;3.03;1.70;;;;;;;20.20;43.69;93488.06;4963661;28;20039;-91
2023/05/28 09:22:01;;;;;;;2.15;1.73;;;;;;;20.20;43.90;93488.06;4974266;28;20049;-91
2023/05/28 09:24:29;;;;;;;2.40;1.70;;;;;;;20.22;43.95;93481.31;4930545;28;20127;-91
2023/05/28 09:26:55;;;;;;;1.90;1.50;;;;;;;20.20;44.03;93485.31;4964263;28;20046;-91
2023/05/28 09:29:24;;;;;;;4.03;2.05;;;;;;;20.20;44.02;93481.84;4931791;29;20047;-91
2023/05/28 09:32:03;;;;;;;2.47;1.63;;;;;;;20.22;43.84;93484.06;4937638;29;20043;-91
2023/05/28 09:34:31;;;;;;;2.38;1.50;;;;;;;20.20;44.03;93481.84;4920295;29;20054;-92
2023/05/28 09:37:06;;;;;;;2.20;1.60;;;;;;;20.20;43.83;93485.31;4938768;29;20563;-92
2023/05/28 09:39:33;;;;;;;2.72;1.80;;;;;;;20.22;44.11;93478.56;4869498;29;20042;-92
2023/05/28 09:42:10;;;;;;;2.97;1.73;;;;;;;20.22;44.25;93479.31;4856709;29;20081;-93
2023/05/28 09:44:36;;;;;;;3.33;1.60;;;;;;;20.20;44.06;93482.59;4872196;29;20045;-91
2023/05/28 09:47:21;;;;;;;2.45;1.63;;;;;;;20.20;44.22;93477.09;4900486;29;20058;-91
2023/05/28 09:49:49;;;;;;;2.00;1.48;;;;;;;20.20;44.10;93477.09;4883680;29;20061;-91
2023/05/28 09:52:24;;;;;;;3.65;1.90;;;;;;;20.20;44.05;93474.34;4849032;29;20152;-90
2023/05/28 09:54:58;;;;;;;1.67;1.50;;;;;;;20.19;44.26;93472.13;4873187;29;20184;-91
2023/05/28 09:57:26;;;;;;;2.70;1.50;;;;;;;20.19;44.22;93467.38;4908883;29;20045;-91
2023/05/28 09:59:56;;;;;;;3.08;1.90;;;;;;;20.20;44.38;93465.38;4913060;28;20513;-92
2023/05/28 10:02:31;;;;;;;;;;;;;;;20.24;44.08;93467.81;4928601;29;20031;-91
2023/05/28 10:04:57;;;;;;;1.67;1.33;;;;;;;20.20;44.25;93457.13;4921343;29;20008;-91
2023/05/28 10:07:31;;;;;;;2.90;1.90;;;;;;;20.20;44.31;93468.13;4910226;29;20098;-91
2023/05/28 10:10:12;;;;;;;2.67;1.65;;;;;;;20.18;44.07;93463.16;4931693;29;20035;-92
2023/05/28 10:12:39;;;;;;;2.03;1.25;;;;;;;20.19;44.16;93472.13;4844688;29;20043;-91
2023/05/28 10:15:06;;;;;;;2.10;1.60;;;;;;;20.20;44.33;93468.13;4901473;29;20044;-91
2023/05/28 10:17:35;;;;;;;3.05;1.67;;;;;;;20.19;44.16;93469.38;4884039;29;20049;-91
2023/05/28 10:20:04;;;;;;;2.83;1.83;;;;;;;20.18;44.22;93454.16;4893879;29;20045;-91
2023/05/28 10:22:34;;;;;;;2.70;1.77;;;;;;;20.18;44.11;93454.91;4871489;29;20056;-92
2023/05/28 10:25:02;;;;;;;3.63;1.90;;;;;;;20.19;44.06;93459.13;4867077;29;20065;-90
2023/05/28 10:27:44;;;;;;;2.58;1.80;;;;;;;20.20;44.15;93454.41;4819391;29;20042;-91
2023/05/28 10:30:15;;;;;;;2.25;1.50;;;;;;;20.21;44.16;93455.88;4858483;29;20048;-92
2023/05/28 10:32:45;;;;;;;2.47;1.48;;;;;;;20.20;44.10;93455.13;4850651;29;20149;-90
2023/05/28 10:35:38;;;;;;;2.20;1.50;;;;;;;20.19;44.19;93461.88;4831157;29;20053;-91
2023/05/28 10:38:30;;;;;;;2.75;1.45;;;;;;;20.20;44.21;93452.38;4845445;29;20082;-91
2023/05/28 10:41:24;;;;;;;1.83;1.58;;;;;;;20.21;44.29;93455.88;4848541;29;20050;-91
2023/05/28 10:44:07;;;;;;;1.80;1.48;;;;;;;20.20;44.35;93463.38;4887594;29;20041;-91
2023/05/28 10:47:07;;;;;;;2.40;1.77;;;;;;;20.20;44.22;93452.38;4835309;29;20021;-93
2023/05/28 10:49:38;;;;;;;2.47;1.60;;;;;;;20.19;44.26;93459.13;4854156;29;20037;-93
2023/05/28 10:52:30;;;;;;;2.25;1.50;;;;;;;20.19;44.39;93455.66;4864293;29;20074;-92
2023/05/28 10:55:03;;;;;;;2.47;1.45;;;;;;;20.19;44.28;93456.41;4874301;29;20041;-93
2023/05/28 10:57:52;;;;;;;2.22;1.42;;;;;;;20.19;44.19;93448.16;4828236;29;20026;-92
2023/05/28 11:00:27;;;;;;;2.78;1.80;;;;;;;20.21;44.37;93447.63;4866828;29;20589;-93
2023/05/28 11:03:41;;;;;;;2.78;1.40;;;;;;;20.21;44.25;93455.88;4814287;29;20050;-93
2023/05/28 11:06:08;;;;;;;2.00;1.70;;;;;;;20.21;44.29;93450.38;4783450;30;20033;-94
2023/05/28 11:08:41;;;;;;;2.03;1.50;;;;;;;20.22;44.35;93451.13;4815834;29;20047;-92
2023/05/28 11:11:15;;;;;;;1.92;1.38;;;;;;;20.20;44.41;93440.66;4756741;29;20138;-91
2023/05/28 11:13:44;;;;;;;1.70;1.17;;;;;;;20.20;44.40;93440.66;4857371;23;20048;-92
2023/05/28 11:16:37;;;;;;;2.08;1.27;;;;;;;20.21;44.44;93444.91;5005863;28;20038;-91
2023/05/28 11:19:13;;;;;;;1.90;1.50;;;;;;;20.22;44.47;93445.63;5048158;28;20179;-92
2023/05/28 11:21:57;;;;;;;2.38;1.60;;;;;;;20.21;44.39;93447.63;5032283;28;20040;-92
2023/05/28 11:24:27;;;;;;;3.65;1.77;;;;;;;20.22;44.45;93443.63;4974449;28;20056;-91
2023/05/28 11:27:00;;;;;;;2.47;1.58;;;;;;;20.20;44.47;93444.16;5039461;23;20039;-93
2023/05/28 11:29:36;;;;;;;2.17;1.48;;;;;;;20.22;44.31;93445.63;4978963;28;20042;-93
2023/05/28 11:32:21;;;;;;;2.28;1.52;;;;;;;20.21;44.27;93444.91;4968651;28;20039;-92
2023/05/28 11:34:57;;;;;;;2.67;1.40;;;;;;;20.23;44.34;93447.13;4957525;28;20035;-92
2023/05/28 11:37:36;;;;;;;2.55;1.60;;;;;;;20.22;44.40;93442.91;4966827;28;20196;-92
2023/05/28 11:40:05;;;;;;;2.95;2.10;;;;;;;20.20;44.35;93433.19;4931970;29;20039;-91
2023/05/28 11:42:45;;;;;;;2.25;1.63;;;;;;;20.21;44.28;93433.91;4920073;29;20048;-91
2023/05/28 11:45:16;;;;;;;3.30;1.60;;;;;;;20.24;44.27;93438.38;4950584;29;20055;-92
2023/05/28 11:48:00;;;;;;;2.30;1.60;;;;;;;20.22;44.77;93432.66;4946821;29;20026;-92
2023/05/28 11:52:52;;;;;;;2.28;1.58;;;;;;;20.24;44.40;93426.66;5144748;22;20104;-91
2023/05/28 11:55:20;;;;;;;2.50;1.50;;;;;;;20.23;44.42;93420.41;5035143;23;20057;-91
2023/05/28 11:57:55;;;;;;;3.83;1.63;;;;;;;20.24;44.36;93423.91;5037069;28;20038;-91